createdAt,value
2018-01-10T00:01:10.119Z,85.46
2018-01-10T00:03:37.729Z,85.58
2018-01-10T00:06:05.323Z,85.63
2018-01-10T00:08:32.905Z,85.71
2018-01-10T00:11:00.459Z,86.01
2018-01-10T00:13:28.208Z,85.62
2018-01-10T00:15:55.802Z,85.50
2018-01-10T00:18:23.642Z,85.81
2018-01-10T00:20:51.305Z,85.88
2018-01-10T00:23:18.920Z,85.89
2018-01-10T00:25:46.516Z,85.90
2018-01-10T00:28:14.363Z,85.91
2018-01-10T00:30:41.961Z,85.98
2018-01-10T00:33:09.764Z,86.15
2018-01-10T00:35:37.392Z,86.10
2018-01-10T00:38:05.075Z,86.05
2018-01-10T00:40:32.703Z,85.83
2018-01-10T00:43:00.364Z,85.92
2018-01-10T00:45:28.342Z,86.03
2018-01-10T00:47:55.933Z,86.00
2018-01-10T00:50:23.595Z,86.00
2018-01-10T00:52:51.184Z,85.78
2018-01-10T00:55:18.801Z,85.63
2018-01-10T00:57:46.362Z,85.67
2018-01-10T01:00:14.034Z,85.89
2018-01-10T01:02:41.620Z,85.93
2018-01-10T01:05:09.857Z,85.86
2018-01-10T01:07:37.683Z,85.82
2018-01-10T01:10:05.788Z,85.92
2018-01-10T01:12:33.723Z,85.91
2018-01-10T01:15:01.309Z,86.09
2018-01-10T01:17:28.894Z,86.31
2018-01-10T01:19:56.560Z,86.44
2018-01-10T01:22:24.180Z,86.56
2018-01-10T01:24:51.729Z,86.47
2018-01-10T01:27:19.283Z,86.19
2018-01-10T01:29:46.899Z,86.30
2018-01-10T01:32:14.539Z,86.20
2018-01-10T01:34:42.400Z,86.29
2018-01-10T01:37:10.057Z,86.30
2018-01-10T01:39:37.618Z,86.35
2018-01-10T01:42:05.214Z,86.40
2018-01-10T01:44:33.237Z,86.36
2018-01-10T01:47:00.838Z,86.45
2018-01-10T01:49:28.432Z,86.49
2018-01-10T01:51:56.130Z,86.53
2018-01-10T01:54:23.731Z,86.35
2018-01-10T01:56:51.392Z,86.13
2018-01-10T01:59:18.989Z,86.11
2018-01-10T02:01:46.564Z,86.06
2018-01-10T02:04:14.200Z,86.11
2018-01-10T02:06:42.047Z,86.09
2018-01-10T02:09:09.603Z,86.09
2018-01-10T02:11:37.417Z,86.28
2018-01-10T02:14:05.008Z,86.25
2018-01-10T02:16:32.678Z,86.31
2018-01-10T02:19:00.263Z,86.35
2018-01-10T02:21:27.826Z,86.45
2018-01-10T02:23:55.444Z,86.36
2018-01-10T02:26:23.230Z,86.53
2018-01-10T02:28:50.915Z,86.58
2018-01-10T02:31:18.472Z,86.69
2018-01-10T02:33:46.338Z,86.57
2018-01-10T02:36:14.194Z,86.48
2018-01-10T02:38:41.801Z,86.45
2018-01-10T02:41:09.357Z,86.35
2018-01-10T02:43:37.165Z,86.36
2018-01-10T02:46:05.121Z,86.39
2018-01-10T02:48:32.996Z,86.44
2018-01-10T02:51:00.589Z,86.55
2018-01-10T02:53:28.154Z,86.64
2018-01-10T02:55:55.776Z,86.70
2018-01-10T02:58:23.602Z,86.90
2018-01-10T03:00:51.744Z,86.98
2018-01-10T03:03:19.310Z,86.97
2018-01-10T03:05:47.244Z,87.04
2018-01-10T03:08:14.820Z,87.09
2018-01-10T03:10:42.405Z,87.46
2018-01-10T03:13:10.057Z,87.73
2018-01-10T03:15:37.651Z,87.88
2018-01-10T03:18:05.354Z,87.93
2018-01-10T03:20:32.968Z,88.03
2018-01-10T03:23:00.592Z,88.25
2018-01-10T03:25:28.323Z,88.50
2018-01-10T03:27:55.955Z,88.60
2018-01-10T03:30:23.548Z,88.83
2018-01-10T03:32:51.155Z,88.91
2018-01-10T03:35:18.876Z,88.94
2018-01-10T03:37:46.494Z,88.91
2018-01-10T03:40:14.150Z,88.94
2018-01-10T03:42:41.811Z,89.05
2018-01-10T03:45:09.407Z,89.30
2018-01-10T03:47:37.062Z,89.31
2018-01-10T03:50:05.001Z,89.37
2018-01-10T03:52:32.567Z,89.40
2018-01-10T03:55:00.175Z,89.42
2018-01-10T03:57:27.760Z,89.53
2018-01-10T03:59:55.355Z,90.04
2018-01-10T04:02:22.981Z,90.22
2018-01-10T04:04:50.722Z,90.43
2018-01-10T04:07:18.311Z,90.44
2018-01-10T04:09:46.184Z,90.56
2018-01-10T04:12:13.743Z,90.56
2018-01-10T04:14:41.394Z,90.42
2018-01-10T04:17:09.062Z,90.34
2018-01-10T04:19:36.622Z,90.23
2018-01-10T04:22:04.211Z,90.05
2018-01-10T04:24:31.803Z,89.99
2018-01-10T04:26:59.462Z,89.84
2018-01-10T04:29:27.020Z,89.76
2018-01-10T04:31:54.633Z,89.71
2018-01-10T04:34:22.223Z,89.62
2018-01-10T04:36:49.851Z,89.41
2018-01-10T04:39:17.839Z,89.28
2018-01-10T04:41:45.406Z,89.83
2018-01-10T04:44:12.999Z,90.08
2018-01-10T04:46:40.601Z,90.20
2018-01-10T04:49:08.258Z,90.26
2018-01-10T04:51:36.387Z,90.21
2018-01-10T04:54:04.196Z,90.14
2018-01-10T04:56:32.042Z,90.22
2018-01-10T04:58:59.730Z,90.25
2018-01-10T05:01:27.326Z,90.21
2018-01-10T05:03:55.167Z,90.12
2018-01-10T05:06:22.968Z,90.02
2018-01-10T05:08:50.538Z,89.95
2018-01-10T05:11:18.090Z,89.87
2018-01-10T05:13:45.768Z,89.80
2018-01-10T05:16:13.749Z,89.72
2018-01-10T05:18:41.718Z,89.72
2018-01-10T05:21:09.409Z,89.72
2018-01-10T05:23:37.346Z,89.65
2018-01-10T05:26:05.051Z,89.60
2018-01-10T05:28:32.675Z,89.60
2018-01-10T05:31:00.298Z,89.55
2018-01-10T05:33:27.865Z,89.51
2018-01-10T05:35:55.453Z,89.25
2018-01-10T05:38:23.052Z,89.26
2018-01-10T05:40:50.937Z,89.32
2018-01-10T05:43:18.636Z,89.38
2018-01-10T05:45:46.376Z,89.28
2018-01-10T05:48:15.316Z,89.12
2018-01-10T05:50:42.892Z,89.11
2018-01-10T05:53:10.731Z,89.02
2018-01-10T05:55:38.317Z,89.04
2018-01-10T05:58:05.878Z,89.01
2018-01-10T06:00:33.496Z,88.94
2018-01-10T06:03:01.054Z,88.92
2018-01-10T06:05:28.675Z,88.81
2018-01-10T06:07:56.352Z,88.76
2018-01-10T06:10:23.938Z,88.66
2018-01-10T06:12:51.635Z,88.59
2018-01-10T06:15:19.307Z,88.57
2018-01-10T06:17:46.952Z,88.53
2018-01-10T06:20:14.590Z,88.52
2018-01-10T06:22:42.287Z,88.46
2018-01-10T06:25:10.247Z,88.40
2018-01-10T06:27:37.835Z,88.28
2018-01-10T06:30:05.452Z,88.32
2018-01-10T06:32:33.433Z,88.40
2018-01-10T06:35:01.512Z,88.48
2018-01-10T06:37:29.109Z,88.45
2018-01-10T06:39:56.781Z,88.50
2018-01-10T06:42:24.792Z,88.52
2018-01-10T06:44:52.386Z,88.41
2018-01-10T06:47:19.982Z,88.32
2018-01-10T06:49:47.875Z,88.29
2018-01-10T06:52:15.756Z,88.26
2018-01-10T06:54:43.355Z,88.22
2018-01-10T06:57:11.005Z,88.19
2018-01-10T06:59:39.158Z,88.22
2018-01-10T07:02:07.023Z,88.27
2018-01-10T07:04:34.986Z,88.31
2018-01-10T07:07:02.850Z,88.73
2018-01-10T07:09:30.510Z,88.80
2018-01-10T07:11:58.127Z,88.76
2018-01-10T07:14:25.807Z,88.68
2018-01-10T07:16:53.446Z,88.64
2018-01-10T07:19:21.008Z,88.70
2018-01-10T07:21:48.594Z,88.60
2018-01-10T07:24:16.398Z,88.61
2018-01-10T07:26:44.060Z,88.65
2018-01-10T07:29:11.645Z,88.62
2018-01-10T07:31:39.475Z,88.80
2018-01-10T07:34:07.631Z,88.78
2018-01-10T07:36:35.261Z,88.81
2018-01-10T07:39:03.058Z,88.79
2018-01-10T07:41:30.950Z,88.74
2018-01-10T07:43:58.576Z,88.66
2018-01-10T07:46:26.173Z,88.86
2018-01-10T07:48:53.908Z,88.88
2018-01-10T07:51:21.813Z,88.94
2018-01-10T07:53:49.809Z,88.80
2018-01-10T07:56:17.548Z,88.87
2018-01-10T07:58:45.514Z,88.89
2018-01-10T08:01:13.140Z,88.82
2018-01-10T08:03:40.995Z,88.93
2018-01-10T08:06:08.650Z,88.94
2018-01-10T08:08:36.242Z,88.95
2018-01-10T08:11:04.103Z,88.97
2018-01-10T08:13:31.907Z,88.84
2018-01-10T08:15:59.706Z,88.89
2018-01-10T08:18:27.535Z,89.00
2018-01-10T08:20:55.329Z,89.25
2018-01-10T08:23:22.905Z,89.52
2018-01-10T08:25:50.566Z,89.82
2018-01-10T08:28:18.427Z,89.69
2018-01-10T08:30:46.442Z,89.71
2018-01-10T08:33:14.031Z,89.88
2018-01-10T08:35:41.622Z,90.13
2018-01-10T08:38:09.238Z,90.25
2018-01-10T08:40:36.794Z,90.32
2018-01-10T08:43:04.345Z,90.72
2018-01-10T08:45:31.963Z,90.71
2018-01-10T08:47:59.534Z,90.89
2018-01-10T08:50:27.162Z,90.88
2018-01-10T08:52:54.821Z,90.84
2018-01-10T08:55:22.484Z,91.04
2018-01-10T08:57:50.119Z,91.14
2018-01-10T09:00:17.762Z,91.39
2018-01-10T09:02:45.361Z,91.30
2018-01-10T09:05:14.232Z,91.26
2018-01-10T09:07:42.054Z,91.20
2018-01-10T09:10:09.962Z,91.33
2018-01-10T09:12:37.830Z,91.33
2018-01-10T09:15:05.426Z,91.32
2018-01-10T09:17:33.009Z,91.17
2018-01-10T09:20:00.569Z,91.16
2018-01-10T09:22:28.160Z,91.04
2018-01-10T09:24:55.766Z,90.85
2018-01-10T09:27:23.468Z,90.62
2018-01-10T09:29:51.476Z,90.52
2018-01-10T09:32:19.172Z,90.41
2018-01-10T09:34:46.737Z,90.37
2018-01-10T09:37:14.604Z,90.32
2018-01-10T09:39:42.160Z,90.17
2018-01-10T09:42:10.066Z,90.02
2018-01-10T09:44:37.969Z,90.10
2018-01-10T09:47:05.613Z,90.23
2018-01-10T09:49:33.449Z,90.26
2018-01-10T09:52:01.174Z,90.25
2018-01-10T09:54:28.842Z,90.21
2018-01-10T09:56:56.395Z,90.39
2018-01-10T09:59:24.555Z,90.38
2018-01-10T10:01:52.196Z,90.58
2018-01-10T10:04:19.757Z,90.79
2018-01-10T10:06:47.582Z,90.92
2018-01-10T10:09:15.284Z,90.97
2018-01-10T10:11:42.956Z,91.01
2018-01-10T10:14:10.523Z,90.97
2018-01-10T10:16:38.493Z,91.01
2018-01-10T10:19:06.058Z,91.04
2018-01-10T10:21:33.704Z,90.89
2018-01-10T10:24:02.166Z,90.82
2018-01-10T10:26:29.780Z,90.73
2018-01-10T10:28:57.376Z,90.68
2018-01-10T10:31:25.199Z,90.67
2018-01-10T10:33:52.809Z,90.62
2018-01-10T10:36:20.394Z,90.60
2018-01-10T10:38:48.376Z,90.58
2018-01-10T10:41:16.003Z,90.38
2018-01-10T10:43:43.862Z,90.38
2018-01-10T10:46:11.456Z,90.44
2018-01-10T10:48:39.124Z,90.47
2018-01-10T10:51:06.711Z,90.26
2018-01-10T10:53:34.265Z,90.12
2018-01-10T10:56:01.888Z,89.98
2018-01-10T10:58:29.486Z,89.87
2018-01-10T11:00:57.502Z,89.74
2018-01-10T11:03:25.145Z,89.64
2018-01-10T11:05:52.950Z,89.49
2018-01-10T11:08:20.835Z,89.54
2018-01-10T11:10:48.579Z,89.54
2018-01-10T11:13:16.151Z,89.44
2018-01-10T11:15:43.717Z,89.31
2018-01-10T11:18:11.690Z,89.27
2018-01-10T11:20:39.244Z,89.24
2018-01-10T11:23:06.882Z,89.17
2018-01-10T11:25:34.444Z,89.12
2018-01-10T11:28:07.945Z,89.16
2018-01-10T11:30:35.557Z,89.08
2018-01-10T11:33:03.136Z,88.94
2018-01-10T11:35:31.060Z,88.91
2018-01-10T11:37:58.622Z,88.68
2018-01-10T11:40:26.210Z,88.69
2018-01-10T11:42:54.047Z,88.72
2018-01-10T11:45:21.720Z,88.65
2018-01-10T11:47:49.403Z,88.62
2018-01-10T11:50:17.035Z,88.61
2018-01-10T11:52:44.607Z,88.32
2018-01-10T11:55:12.558Z,88.20
2018-01-10T11:57:40.367Z,88.14
2018-01-10T12:00:07.974Z,87.99
2018-01-10T12:02:35.569Z,87.92
2018-01-10T12:05:03.507Z,87.84
2018-01-10T12:07:31.121Z,87.88
2018-01-10T12:09:58.702Z,87.86
2018-01-10T12:12:26.298Z,87.83
2018-01-10T12:14:53.857Z,87.90
2018-01-10T12:17:21.480Z,87.83
2018-01-10T12:19:49.172Z,87.55
2018-01-10T12:22:16.796Z,87.54
2018-01-10T12:24:44.411Z,87.39
2018-01-10T12:27:12.066Z,87.42
2018-01-10T12:29:39.769Z,87.48
2018-01-10T12:32:07.438Z,87.54
2018-01-10T12:34:34.999Z,87.48
2018-01-10T12:37:02.685Z,87.39
2018-01-10T12:39:30.321Z,87.48
2018-01-10T12:41:57.910Z,87.54
2018-01-10T12:44:25.496Z,87.58
2018-01-10T12:46:53.107Z,87.44
2018-01-10T12:49:20.992Z,87.54
2018-01-10T12:51:48.606Z,87.62
2018-01-10T12:54:16.227Z,87.57
2018-01-10T12:56:43.813Z,87.48
2018-01-10T12:59:11.779Z,87.51
2018-01-10T13:01:39.492Z,87.75
2018-01-10T13:04:07.059Z,87.78
2018-01-10T13:06:34.702Z,87.70
2018-01-10T13:09:02.639Z,87.78
2018-01-10T13:11:30.242Z,87.93
2018-01-10T13:13:57.849Z,88.01
2018-01-10T13:16:25.516Z,88.04
2018-01-10T13:18:53.412Z,88.14
2018-01-10T13:21:21.069Z,88.36
2018-01-10T13:23:49.024Z,88.54
2018-01-10T13:26:16.700Z,88.33
2018-01-10T13:28:44.530Z,88.53
2018-01-10T13:31:12.113Z,88.47
2018-01-10T13:33:40.176Z,88.47
2018-01-10T13:36:07.771Z,88.49
2018-01-10T13:38:35.720Z,88.48
2018-01-10T13:41:03.687Z,88.43
2018-01-10T13:43:31.481Z,88.43
2018-01-10T13:45:59.040Z,88.47
2018-01-10T13:48:26.628Z,88.42
2018-01-10T13:50:54.635Z,88.45
2018-01-10T13:53:22.253Z,88.46
2018-01-10T13:55:50.160Z,88.56
2018-01-10T13:58:17.749Z,88.56
2018-01-10T14:00:45.599Z,88.58
2018-01-10T14:03:13.458Z,88.72
2018-01-10T14:05:41.107Z,88.74
2018-01-10T14:08:08.732Z,88.72
2018-01-10T14:10:36.451Z,88.74
2018-01-10T14:13:04.134Z,88.72
2018-01-10T14:15:32.578Z,88.74
2018-01-10T14:18:00.223Z,88.76
2018-01-10T14:20:27.784Z,88.75
2018-01-10T14:22:55.516Z,88.78
2018-01-10T14:25:23.144Z,88.78
2018-01-10T14:27:50.973Z,88.90
2018-01-10T14:30:18.553Z,88.94
2018-01-10T14:32:46.426Z,88.99
2018-01-10T14:35:13.985Z,89.05
2018-01-10T14:37:41.598Z,89.13
2018-01-10T14:40:09.189Z,89.12
2018-01-10T14:42:36.774Z,89.14
2018-01-10T14:45:04.387Z,89.23
2018-01-10T14:47:31.973Z,89.23
2018-01-10T14:49:59.608Z,89.22
2018-01-10T14:52:27.222Z,89.24
2018-01-10T14:54:55.043Z,89.30
2018-01-10T14:57:22.909Z,89.34
2018-01-10T14:59:50.517Z,89.31
2018-01-10T15:02:18.102Z,89.35
2018-01-10T15:04:45.699Z,89.34
2018-01-10T15:07:13.540Z,89.32
2018-01-10T15:09:41.103Z,89.28
2018-01-10T15:12:08.800Z,89.31
2018-01-10T15:14:36.459Z,89.30
2018-01-10T15:17:04.055Z,89.32
2018-01-10T15:19:31.647Z,89.42
2018-01-10T15:21:59.243Z,89.42
2018-01-10T15:24:27.236Z,89.50
2018-01-10T15:26:55.170Z,89.50
2018-01-10T15:29:23.080Z,89.49
2018-01-10T15:31:50.636Z,89.52
2018-01-10T15:34:18.219Z,89.48
2018-01-10T15:36:46.077Z,89.52
2018-01-10T15:39:13.889Z,89.52
2018-01-10T15:41:41.527Z,89.51
2018-01-10T15:44:09.091Z,89.51
2018-01-10T15:46:36.685Z,89.52
2018-01-10T15:49:04.270Z,89.51
2018-01-10T15:51:32.002Z,89.53
2018-01-10T15:53:59.698Z,89.53
2018-01-10T15:56:27.287Z,89.55
2018-01-10T15:58:55.200Z,89.56
2018-01-10T16:01:22.818Z,89.53
2018-01-10T16:03:50.430Z,89.52
2018-01-10T16:06:18.018Z,89.49
2018-01-10T16:08:45.663Z,89.47
2018-01-10T16:11:13.254Z,89.48
2018-01-10T16:13:40.883Z,89.52
2018-01-10T16:16:08.743Z,89.55
2018-01-10T16:18:36.395Z,89.59
2018-01-10T16:21:04.084Z,89.60
2018-01-10T16:23:31.674Z,89.78
2018-01-10T16:25:59.286Z,90.05
2018-01-10T16:28:26.922Z,90.15
2018-01-10T16:30:54.534Z,90.07
2018-01-10T16:33:22.098Z,89.98
2018-01-10T16:35:49.713Z,90.16
2018-01-10T16:38:17.334Z,90.21
2018-01-10T16:40:44.950Z,90.15
2018-01-10T16:43:12.607Z,90.10
2018-01-10T16:45:40.266Z,90.03
2018-01-10T16:48:08.090Z,89.98
2018-01-10T16:50:36.039Z,89.99
2018-01-10T16:53:03.884Z,89.97
2018-01-10T16:55:31.494Z,90.02
2018-01-10T16:57:59.427Z,90.04
2018-01-10T17:00:27.044Z,90.12
2018-01-10T17:02:54.630Z,90.03
2018-01-10T17:05:22.265Z,90.04
2018-01-10T17:07:49.846Z,90.05
2018-01-10T17:10:17.645Z,90.12
2018-01-10T17:12:45.607Z,90.08
2018-01-10T17:15:13.580Z,90.15
2018-01-10T17:17:41.562Z,90.14
2018-01-10T17:20:09.149Z,90.15
2018-01-10T17:22:36.718Z,90.13
2018-01-10T17:25:04.467Z,90.12
2018-01-10T17:27:32.084Z,90.10
2018-01-10T17:29:59.644Z,90.23
2018-01-10T17:32:27.241Z,90.12
2018-01-10T17:34:54.849Z,90.15
2018-01-10T17:37:22.588Z,90.17
2018-01-10T17:39:50.207Z,90.35
2018-01-10T17:42:17.823Z,90.44
2018-01-10T17:44:45.387Z,90.49
2018-01-10T17:47:13.060Z,90.44
2018-01-10T17:49:40.660Z,90.40
2018-01-10T17:52:08.725Z,90.47
2018-01-10T17:54:36.348Z,90.38
2018-01-10T17:57:03.941Z,90.34
2018-01-10T17:59:31.538Z,90.37
2018-01-10T18:01:59.189Z,90.36
2018-01-10T18:04:26.749Z,90.33
2018-01-10T18:06:54.302Z,90.31
2018-01-10T18:11:55.232Z,90.30
2018-01-10T18:14:22.818Z,90.29
2018-01-10T18:16:50.415Z,90.32
2018-01-10T18:19:18.324Z,90.34
2018-01-10T18:21:46.295Z,90.34
2018-01-10T18:24:14.339Z,90.33
2018-01-10T18:26:41.893Z,90.26
2018-01-10T18:29:09.798Z,90.30
2018-01-10T18:31:37.362Z,90.32
2018-01-10T18:34:04.979Z,90.29
2018-01-10T18:36:32.811Z,90.27
2018-01-10T18:39:00.431Z,90.31
2018-01-10T18:41:27.992Z,90.34
2018-01-10T18:43:55.718Z,90.29
2018-01-10T18:46:23.342Z,90.27
2018-01-10T18:48:50.930Z,90.25
2018-01-10T18:51:18.863Z,90.18
2018-01-10T18:53:46.484Z,90.13
2018-01-10T18:56:14.430Z,90.11
2018-01-10T18:58:42.361Z,90.12
2018-01-10T19:01:10.232Z,90.12
2018-01-10T19:03:37.850Z,90.08
2018-01-10T19:06:05.490Z,90.03
2018-01-10T19:08:33.182Z,89.99
2018-01-10T19:11:00.846Z,89.91
2018-01-10T19:13:28.750Z,89.86
2018-01-10T19:15:56.382Z,89.81
2018-01-10T19:18:24.026Z,89.65
2018-01-10T19:20:51.843Z,89.23
2018-01-10T19:23:19.398Z,89.14
2018-01-10T19:25:47.086Z,89.12
2018-01-10T19:28:14.701Z,89.01
2018-01-10T19:30:42.509Z,88.97
2018-01-10T19:33:10.104Z,88.85
2018-01-10T19:35:37.725Z,88.24
2018-01-10T19:38:05.559Z,87.69
2018-01-10T19:40:33.120Z,87.56
2018-01-10T19:43:00.734Z,87.50
2018-01-10T19:45:28.330Z,87.47
2018-01-10T19:47:56.194Z,87.47
2018-01-10T19:50:24.009Z,87.52
2018-01-10T19:52:51.618Z,87.57
2018-01-10T19:55:19.218Z,87.52
2018-01-10T19:57:47.275Z,87.61
2018-01-10T20:00:15.243Z,87.69
2018-01-10T20:02:42.871Z,87.76
2018-01-10T20:05:10.777Z,87.86
2018-01-10T20:07:38.377Z,87.82
2018-01-10T20:10:05.929Z,87.84
2018-01-10T20:12:33.620Z,87.92
2018-01-10T20:15:01.783Z,87.92
2018-01-10T20:17:29.454Z,87.93
2018-01-10T20:19:57.115Z,87.91
2018-01-10T20:22:24.763Z,87.90
2018-01-10T20:24:52.565Z,87.93
2018-01-10T20:27:20.170Z,87.91
2018-01-10T20:29:47.726Z,87.87
2018-01-10T20:32:15.342Z,87.86
2018-01-10T20:34:43.354Z,87.89
2018-01-10T20:37:10.995Z,87.98
2018-01-10T20:39:38.724Z,87.95
2018-01-10T20:42:06.291Z,87.94
2018-01-10T20:44:34.199Z,87.93
2018-01-10T20:47:02.036Z,87.89
2018-01-10T20:49:29.877Z,87.89
2018-01-10T20:51:57.538Z,87.87
2018-01-10T20:54:25.426Z,87.87
2018-01-10T20:56:53.064Z,87.85
2018-01-10T20:59:20.967Z,87.79
2018-01-10T21:01:48.525Z,87.69
2018-01-10T21:04:16.118Z,87.69
2018-01-10T21:06:43.726Z,87.70
2018-01-10T21:09:11.444Z,87.69
2018-01-10T21:11:39.035Z,87.72
2018-01-10T21:14:06.761Z,87.70
2018-01-10T21:16:34.388Z,87.65
2018-01-10T21:19:01.967Z,87.59
2018-01-10T21:21:29.596Z,87.54
2018-01-10T21:23:57.242Z,87.50
2018-01-10T21:26:24.891Z,87.49
2018-01-10T21:28:52.491Z,87.50
2018-01-10T21:31:20.117Z,87.49
2018-01-10T21:33:47.739Z,87.47
2018-01-10T21:36:15.591Z,87.46
2018-01-10T21:38:43.225Z,87.51
2018-01-10T21:41:10.794Z,87.56
2018-01-10T21:43:38.805Z,87.65
2018-01-10T21:46:06.429Z,87.69
2018-01-10T21:48:34.443Z,87.78
2018-01-10T21:51:02.059Z,87.88
2018-01-10T21:53:29.722Z,87.91
2018-01-10T21:55:57.349Z,87.92
2018-01-10T21:58:25.037Z,87.97
2018-01-10T22:00:52.651Z,87.98
2018-01-10T22:03:20.294Z,88.00
2018-01-10T22:05:47.845Z,87.98
2018-01-10T22:08:15.542Z,87.99
2018-01-10T22:10:43.166Z,88.01
2018-01-10T22:13:10.757Z,88.03
2018-01-10T22:15:38.351Z,88.02
2018-01-10T22:18:05.938Z,88.00
2018-01-10T22:20:33.495Z,87.97
2018-01-10T22:23:01.411Z,87.92
2018-01-10T22:25:29.033Z,87.88
2018-01-10T22:27:56.622Z,87.82
2018-01-10T22:30:24.212Z,87.82
2018-01-10T22:32:51.892Z,87.82
2018-01-10T22:35:19.531Z,87.76
2018-01-10T22:37:47.268Z,87.60
2018-01-10T22:40:15.098Z,87.41
2018-01-10T22:42:42.686Z,87.34
2018-01-10T22:45:10.290Z,87.27
2018-01-10T22:47:37.874Z,87.23
2018-01-10T22:50:05.891Z,87.16
2018-01-10T22:52:33.759Z,87.18
2018-01-10T22:55:01.370Z,87.19
2018-01-10T22:57:29.029Z,87.19
2018-01-10T22:59:56.702Z,87.17
2018-01-10T23:02:24.315Z,87.21
2018-01-10T23:04:51.932Z,87.22
2018-01-10T23:07:19.559Z,87.29
2018-01-10T23:09:47.250Z,87.28
2018-01-10T23:12:14.820Z,87.29
2018-01-10T23:14:42.414Z,87.28
2018-01-10T23:17:09.970Z,87.31
2018-01-10T23:19:37.544Z,87.33
2018-01-10T23:22:05.115Z,87.41
2018-01-10T23:24:33.073Z,87.51
2018-01-10T23:27:00.638Z,87.60
2018-01-10T23:29:28.258Z,87.75
2018-01-10T23:31:55.847Z,87.94
2018-01-10T23:34:23.428Z,88.06
2018-01-10T23:36:51.258Z,88.14
2018-01-10T23:39:18.837Z,88.33
2018-01-10T23:41:46.557Z,88.56
2018-01-10T23:44:14.397Z,88.81
2018-01-10T23:46:41.989Z,89.26
2018-01-10T23:49:09.626Z,89.65
2018-01-10T23:51:37.234Z,90.69
2018-01-10T23:54:04.803Z,91.13
2018-01-10T23:56:32.482Z,90.99
2018-01-10T23:59:00.074Z,90.87
